Rushville, Illinois
Current Conditions -  °F | °C
As of 11:55 PM on Tuesday 21 Oct 2014 (Local Time) from KMQB Reporting Station
Clear Clear  
Wind Chill: 35°   Ceiling: Unl
Heat Index: 39°   Visibility: 10mi
Dew Point: 37°   Wind: 6mph
Humidity: 92%   Direction: 80°E
Pressure: 30.26"   Gusts: NA
Location:  40.12°N, 90.56°W
Report Text: KMQB 220455Z AUTO 08005KT 10SM CLR 04/03 A3026 RMK AO2 T00410029
Loading
Personal Weather Stations






























Interactive Weather Map
Tropical Storm Tracking
New forecast layout! Learn more

10-Day Weather Forecast

Advertisements
Track Severe Weather on mobile